createdAt,value
2023-01-19T00:04:05.799Z,99027.66
2023-01-19T00:08:59.635Z,99011.72
2023-01-19T00:13:54.149Z,99003.91
2023-01-19T00:18:48.214Z,99021.53
2023-01-19T00:23:42.638Z,98994.31
2023-01-19T00:28:35.654Z,99024.44
2023-01-19T00:33:29.509Z,99004.94
2023-01-19T00:38:23.577Z,98983.84
2023-01-19T00:43:21.175Z,99014.41
2023-01-19T00:48:14.376Z,99023.59
2023-01-19T00:53:07.709Z,99005.47
2023-01-19T00:58:02.076Z,99002.38
2023-01-19T01:02:55.965Z,99000.97
2023-01-19T01:07:49.912Z,99040.31
2023-01-19T01:13:20.397Z,99026.38
2023-01-19T01:17:57.130Z,99012.94
2023-01-19T01:22:52.758Z,98998.75
2023-01-19T01:27:45.853Z,99020.25
2023-01-19T01:32:39.166Z,98998.19
2023-01-19T01:37:33.106Z,99024.69
2023-01-19T01:42:35.884Z,99031.94
2023-01-19T01:47:50.429Z,99034.06
2023-01-19T01:53:06.311Z,99044.63
2023-01-19T01:58:05.616Z,99029.72
2023-01-19T02:03:01.175Z,99003.47
2023-01-19T02:08:37.288Z,99021.06
2023-01-19T02:13:37.515Z,99029.97
2023-01-19T02:18:32.541Z,98997.47
2023-01-19T02:23:38.243Z,99027.22
2023-01-19T02:28:31.722Z,98991.06
2023-01-19T02:33:30.467Z,99032.50
2023-01-19T02:38:27.728Z,99006.38
2023-01-19T02:43:21.221Z,99009.00
2023-01-19T02:48:14.864Z,99049.34
2023-01-19T02:53:35.338Z,99040.84
2023-01-19T02:58:36.312Z,99030.06
2023-01-19T03:03:33.392Z,99051.16
2023-01-19T03:08:33.424Z,99045.59
2023-01-19T03:13:41.959Z,99031.94
2023-01-19T03:19:14.620Z,99040.44
2023-01-19T03:24:09.162Z,99037.91
2023-01-19T03:29:03.859Z,99040.56
2023-01-19T03:34:02.870Z,99054.50
2023-01-19T03:38:58.642Z,99073.91
2023-01-19T03:43:53.551Z,99042.31
2023-01-19T03:48:49.322Z,99045.09
2023-01-19T03:53:42.282Z,99058.00
2023-01-19T03:58:36.379Z,99030.50
2023-01-19T04:03:30.355Z,99024.56
2023-01-19T04:08:23.570Z,98984.38
2023-01-19T04:13:16.778Z,99010.63
2023-01-19T04:18:10.547Z,99026.66
2023-01-19T04:23:04.645Z,99010.75
2023-01-19T04:28:00.268Z,98991.91
2023-01-19T04:32:56.311Z,98993.03
2023-01-19T04:37:49.741Z,99001.78
2023-01-19T04:42:47.178Z,99007.91
2023-01-19T04:47:43.306Z,99000.69
2023-01-19T04:52:37.130Z,99016.94
2023-01-19T04:57:30.936Z,99038.31
2023-01-19T05:02:25.040Z,99037.09
2023-01-19T05:07:18.283Z,99031.88
2023-01-19T05:12:12.222Z,99063.75
2023-01-19T05:17:04.808Z,99042.25
2023-01-19T05:21:58.034Z,99059.31
2023-01-19T05:26:51.765Z,99065.94
2023-01-19T05:31:45.531Z,99106.41
2023-01-19T05:36:38.726Z,99116.63
2023-01-19T05:41:32.585Z,99111.19
2023-01-19T05:46:26.068Z,99100.34
2023-01-19T05:51:19.493Z,99065.75
2023-01-19T05:56:13.815Z,99075.38
2023-01-19T06:01:10.475Z,99093.25
2023-01-19T06:06:03.801Z,99081.38
2023-01-19T06:10:57.741Z,99118.38
2023-01-19T06:15:58.455Z,99115.66
2023-01-19T06:20:53.112Z,99128.50
2023-01-19T06:25:47.379Z,99127.06
2023-01-19T06:30:41.078Z,99123.16
2023-01-19T06:35:36.619Z,99140.31
2023-01-19T06:40:30.545Z,99164.13
2023-01-19T06:45:23.821Z,99175.44
2023-01-19T06:50:18.139Z,99182.00
2023-01-19T06:55:12.125Z,99190.50
2023-01-19T07:00:09.903Z,99184.75
2023-01-19T07:05:03.102Z,99205.16
2023-01-19T07:09:56.176Z,99189.44
2023-01-19T07:14:50.311Z,99185.13
2023-01-19T07:19:44.046Z,99223.38
2023-01-19T07:24:38.163Z,99215.44
2023-01-19T07:29:32.185Z,99235.41
2023-01-19T07:34:26.301Z,99230.06
2023-01-19T07:39:20.323Z,99221.53
2023-01-19T07:44:14.394Z,99243.41
2023-01-19T07:49:08.717Z,99258.53
2023-01-19T07:54:01.749Z,99252.31
2023-01-19T07:58:54.753Z,99241.78
2023-01-19T08:03:51.389Z,99281.53
2023-01-19T08:08:45.670Z,99300.28
2023-01-19T08:13:40.143Z,99299.59
2023-01-19T08:18:33.335Z,99305.22
2023-01-19T08:23:28.610Z,99308.25
2023-01-19T08:28:22.748Z,99281.34
2023-01-19T08:33:16.902Z,99291.22
2023-01-19T08:38:10.824Z,99323.31
2023-01-19T08:43:07.876Z,99322.84
2023-01-19T08:48:00.970Z,99310.97
2023-01-19T08:52:57.907Z,99306.59
2023-01-19T08:57:55.320Z,99350.28
2023-01-19T09:02:48.513Z,99340.84
2023-01-19T09:07:42.293Z,99338.47
2023-01-19T09:12:36.172Z,99331.22
2023-01-19T09:17:29.480Z,99328.84
2023-01-19T09:22:27.188Z,99348.00
2023-01-19T09:27:20.664Z,99353.03
2023-01-19T09:32:13.932Z,99353.38
2023-01-19T09:37:08.506Z,99345.78
2023-01-19T09:42:25.523Z,99389.09
2023-01-19T09:47:24.369Z,99401.72
2023-01-19T09:52:19.019Z,99407.25
2023-01-19T09:57:13.107Z,99415.41
2023-01-19T10:02:20.135Z,99420.47
2023-01-19T10:07:29.786Z,99420.56
2023-01-19T10:13:03.845Z,99403.72
2023-01-19T10:18:12.813Z,99431.88
2023-01-19T10:23:20.439Z,99428.41
2023-01-19T10:28:16.438Z,99412.59
2023-01-19T10:33:14.348Z,99438.97
2023-01-19T10:38:07.075Z,99449.34
2023-01-19T10:43:00.971Z,99429.81
2023-01-19T10:47:56.298Z,99415.28
2023-01-19T10:52:55.224Z,99431.31
2023-01-19T10:57:52.250Z,99421.56
2023-01-19T11:02:51.659Z,99439.25
2023-01-19T11:07:45.413Z,99394.34
2023-01-19T11:12:43.894Z,99427.94
2023-01-19T11:17:38.154Z,99421.81
2023-01-19T11:22:33.852Z,99419.13
2023-01-19T11:27:27.828Z,99438.88
2023-01-19T11:32:24.075Z,99465.44
2023-01-19T11:37:17.150Z,99462.88
2023-01-19T11:42:13.282Z,99435.66
2023-01-19T11:47:12.166Z,99425.31
2023-01-19T11:52:25.131Z,99462.41
2023-01-19T11:57:20.603Z,99437.25
2023-01-19T12:02:28.596Z,99461.06
2023-01-19T12:07:29.806Z,99462.16
2023-01-19T12:12:33.598Z,99471.75
2023-01-19T12:17:34.914Z,99472.13
2023-01-19T12:22:29.423Z,99426.16
2023-01-19T12:27:39.464Z,99450.38
2023-01-19T12:32:35.209Z,99441.25
2023-01-19T12:37:40.183Z,99454.13
2023-01-19T12:42:34.615Z,99455.59
2023-01-19T12:47:28.407Z,99469.25
2023-01-19T12:52:41.653Z,99462.28
2023-01-19T12:57:41.028Z,99461.31
2023-01-19T13:02:45.722Z,99440.38
2023-01-19T13:08:03.942Z,99453.16
2023-01-19T13:13:21.195Z,99470.94
2023-01-19T13:18:22.549Z,99454.09
2023-01-19T13:23:22.345Z,99485.63
2023-01-19T13:28:18.030Z,99494.44
2023-01-19T13:33:19.733Z,99497.09
2023-01-19T13:38:14.223Z,99498.53
2023-01-19T13:43:28.878Z,99498.41
2023-01-19T13:48:24.584Z,99502.84
2023-01-19T13:53:19.786Z,99517.91
2023-01-19T13:58:25.596Z,99489.34
2023-01-19T14:03:40.822Z,99517.78
2023-01-19T14:08:38.069Z,99518.63
2023-01-19T14:13:40.907Z,99502.56
2023-01-19T14:18:35.616Z,99541.22
2023-01-19T14:23:48.163Z,99532.34
2023-01-19T14:28:44.598Z,99535.34
2023-01-19T14:33:47.794Z,99531.25
2023-01-19T14:39:04.436Z,99545.34
2023-01-19T14:43:59.570Z,99546.91
2023-01-19T14:48:58.511Z,99525.72
2023-01-19T14:53:56.855Z,99534.88
2023-01-19T14:58:51.639Z,99515.97
2023-01-19T15:03:46.107Z,99531.03
2023-01-19T15:08:39.737Z,99536.66
2023-01-19T15:13:33.249Z,99548.72
2023-01-19T15:18:28.876Z,99563.53
2023-01-19T15:23:22.796Z,99556.53
2023-01-19T15:28:19.356Z,99581.09
2023-01-19T15:33:23.802Z,99565.66
2023-01-19T15:38:17.277Z,99561.22
2023-01-19T15:43:32.967Z,99568.44
2023-01-19T15:48:43.340Z,99578.44
2023-01-19T15:53:37.577Z,99601.91
2023-01-19T15:58:31.477Z,99586.75
2023-01-19T16:03:26.596Z,99589.28
2023-01-19T16:08:20.471Z,99590.47
2023-01-19T16:13:14.859Z,99611.81
2023-01-19T16:18:08.720Z,99596.34
2023-01-19T16:23:14.394Z,99608.16
2023-01-19T16:28:09.258Z,99647.09
2023-01-19T16:33:03.085Z,99633.47
2023-01-19T16:37:56.514Z,99647.22
2023-01-19T16:42:49.917Z,99641.19
2023-01-19T16:47:46.203Z,99608.63
2023-01-19T16:52:39.396Z,99640.09
2023-01-19T16:57:32.728Z,99613.41
2023-01-19T17:02:26.319Z,99640.75
2023-01-19T17:07:19.567Z,99637.00
2023-01-19T17:12:13.565Z,99642.78
2023-01-19T17:17:10.179Z,99647.97
2023-01-19T17:22:04.395Z,99678.72
2023-01-19T17:26:56.778Z,99674.38
2023-01-19T17:31:52.179Z,99673.16
2023-01-19T17:36:46.511Z,99691.47
2023-01-19T17:41:39.939Z,99692.34
2023-01-19T17:46:36.758Z,99679.19
2023-01-19T17:51:30.418Z,99688.47
2023-01-19T17:56:29.280Z,99690.19
2023-01-19T18:01:41.040Z,99699.59
2023-01-19T18:06:34.462Z,99674.63
2023-01-19T18:11:28.570Z,99695.63
2023-01-19T18:16:27.017Z,99699.25
2023-01-19T18:21:21.938Z,99722.72
2023-01-19T18:26:20.620Z,99700.06
2023-01-19T18:31:16.200Z,99681.44
2023-01-19T18:36:10.196Z,99724.75
2023-01-19T18:41:07.726Z,99729.94
2023-01-19T18:46:00.587Z,99719.22
2023-01-19T18:50:55.184Z,99722.25
2023-01-19T18:55:56.762Z,99698.28
2023-01-19T19:00:50.436Z,99723.81
2023-01-19T19:05:45.060Z,99715.38
2023-01-19T19:10:41.164Z,99720.72
2023-01-19T19:15:35.336Z,99723.38
2023-01-19T19:20:28.589Z,99726.84
2023-01-19T19:25:21.675Z,99698.31
2023-01-19T19:30:16.096Z,99689.66
2023-01-19T19:35:09.046Z,99709.28
2023-01-19T19:40:02.440Z,99696.00
2023-01-19T19:44:56.185Z,99703.84
2023-01-19T19:49:49.020Z,99706.97
2023-01-19T19:54:43.041Z,99718.69
2023-01-19T19:59:36.944Z,99711.56
2023-01-19T20:04:31.070Z,99705.53
2023-01-19T20:09:25.633Z,99697.56
2023-01-19T20:14:19.341Z,99717.34
2023-01-19T20:19:13.270Z,99717.59
2023-01-19T20:24:18.191Z,99713.25
2023-01-19T20:29:11.698Z,99726.50
2023-01-19T20:34:07.500Z,99721.47
2023-01-19T20:39:03.004Z,99717.59
2023-01-19T20:43:56.805Z,99703.38
2023-01-19T20:48:53.426Z,99713.97
2023-01-19T20:53:46.616Z,99697.56
2023-01-19T20:58:39.912Z,99717.53
2023-01-19T21:03:32.000Z,99728.84
2023-01-19T21:08:25.932Z,99722.56
2023-01-19T21:13:18.948Z,99748.25
2023-01-19T21:18:12.849Z,99753.56
2023-01-19T21:23:06.051Z,99751.84
2023-01-19T21:27:59.794Z,99771.13
2023-01-19T21:32:53.182Z,99735.06
2023-01-19T21:37:47.942Z,99760.88
2023-01-19T21:42:41.323Z,99743.84
2023-01-19T21:47:37.623Z,99753.50
2023-01-19T21:52:32.000Z,99766.19
2023-01-19T21:57:26.148Z,99746.63
2023-01-19T22:02:37.727Z,99749.72
2023-01-19T22:07:31.945Z,99752.16
2023-01-19T22:12:26.124Z,99778.44
2023-01-19T22:17:19.682Z,99796.97
2023-01-19T22:22:13.374Z,99765.88
2023-01-19T22:27:07.052Z,99794.31
2023-01-19T22:32:00.766Z,99798.66
2023-01-19T22:36:54.036Z,99794.31
2023-01-19T22:41:47.692Z,99799.72
2023-01-19T22:46:40.721Z,99803.88
2023-01-19T22:51:35.018Z,99767.91
2023-01-19T22:56:30.592Z,99764.75
2023-01-19T23:01:26.378Z,99763.06
2023-01-19T23:06:41.042Z,99762.00
2023-01-19T23:11:36.822Z,99766.66
2023-01-19T23:16:30.829Z,99766.47
2023-01-19T23:21:26.385Z,99789.69
2023-01-19T23:26:20.627Z,99794.28
2023-01-19T23:31:19.486Z,99766.00
2023-01-19T23:36:14.034Z,99797.16
2023-01-19T23:41:07.830Z,99782.97
2023-01-19T23:46:06.008Z,99787.38
2023-01-19T23:50:58.506Z,99781.25
2023-01-19T23:55:52.489Z,99771.78
